createdAt,value
2022-12-29T00:00:01.578Z,3.96
2022-12-29T00:05:07.341Z,3.99
2022-12-29T00:10:12.915Z,3.99
2022-12-29T00:15:35.915Z,3.97
2022-12-29T00:20:58.837Z,3.92
2022-12-29T00:26:29.727Z,3.91
2022-12-29T00:31:51.635Z,3.86
2022-12-29T00:36:56.341Z,3.81
2022-12-29T00:42:37.035Z,3.77
2022-12-29T00:47:41.821Z,3.69
2022-12-29T00:52:46.234Z,3.64
2022-12-29T00:57:51.996Z,3.58
2022-12-29T01:02:56.578Z,3.54
2022-12-29T01:08:00.919Z,3.56
2022-12-29T01:13:06.847Z,3.58
2022-12-29T01:18:11.473Z,3.60
2022-12-29T01:23:16.261Z,3.63
2022-12-29T01:28:26.323Z,3.65
2022-12-29T01:33:30.929Z,3.69
2022-12-29T01:38:37.121Z,3.74
2022-12-29T01:43:46.801Z,3.80
2022-12-29T01:48:54.866Z,3.86
2022-12-29T01:54:03.396Z,3.86
2022-12-29T01:59:16.544Z,3.95
2022-12-29T02:04:21.639Z,4.04
2022-12-29T02:09:27.110Z,4.09
2022-12-29T02:14:33.258Z,4.11
2022-12-29T02:20:39.305Z,4.13
2022-12-29T02:26:25.997Z,4.15
2022-12-29T02:31:40.795Z,4.18
2022-12-29T02:36:57.977Z,4.22
2022-12-29T02:42:11.772Z,4.22
2022-12-29T02:47:26.073Z,4.22
2022-12-29T02:52:36.133Z,4.22
2022-12-29T02:57:40.835Z,4.27
2022-12-29T03:03:07.780Z,4.25
2022-12-29T03:08:27.213Z,4.27
2022-12-29T03:13:59.127Z,4.33
2022-12-29T03:19:10.721Z,4.35
2022-12-29T03:24:16.756Z,4.35
2022-12-29T03:29:26.357Z,4.37
2022-12-29T03:34:50.614Z,4.43
2022-12-29T03:39:58.180Z,4.45
2022-12-29T03:45:02.756Z,4.46
2022-12-29T03:50:10.762Z,4.46
2022-12-29T03:55:18.425Z,4.46
2022-12-29T04:00:23.598Z,4.47
2022-12-29T04:05:29.818Z,4.46
2022-12-29T04:10:40.432Z,4.44
2022-12-29T04:15:46.278Z,4.37
2022-12-29T04:21:08.033Z,4.34
2022-12-29T04:26:31.182Z,4.31
2022-12-29T04:31:52.620Z,4.28
2022-12-29T04:37:01.713Z,4.24
2022-12-29T04:42:10.572Z,4.16
2022-12-29T04:47:17.783Z,4.04
2022-12-29T04:52:32.192Z,3.95
2022-12-29T04:57:36.933Z,3.89
2022-12-29T05:02:41.936Z,3.83
2022-12-29T05:07:51.196Z,3.75
2022-12-29T05:12:56.409Z,3.65
2022-12-29T05:18:01.404Z,3.69
2022-12-29T05:23:13.237Z,3.66
2022-12-29T05:28:27.341Z,3.68
2022-12-29T05:33:53.865Z,3.73
2022-12-29T05:39:00.545Z,3.80
2022-12-29T05:44:15.163Z,3.83
2022-12-29T05:49:26.889Z,3.86
2022-12-29T05:54:51.832Z,3.94
2022-12-29T05:59:59.571Z,4.00
2022-12-29T06:05:08.144Z,4.05
2022-12-29T06:10:19.331Z,4.11
2022-12-29T06:15:44.037Z,4.16
2022-12-29T06:20:49.755Z,4.26
2022-12-29T06:25:58.403Z,4.37
2022-12-29T06:31:06.233Z,4.43
2022-12-29T06:36:10.895Z,4.52
2022-12-29T06:41:16.877Z,4.57
2022-12-29T06:46:58.528Z,4.60
2022-12-29T06:52:12.542Z,4.64
2022-12-29T06:57:19.310Z,4.68
2022-12-29T07:02:26.359Z,4.73
2022-12-29T07:07:36.873Z,4.75
2022-12-29T07:12:46.074Z,4.74
2022-12-29T07:17:54.168Z,4.69
2022-12-29T07:22:58.807Z,4.69
2022-12-29T07:28:05.241Z,4.67
2022-12-29T07:33:12.831Z,4.66
2022-12-29T07:38:22.923Z,4.67
2022-12-29T07:43:30.153Z,4.68
2022-12-29T07:49:01.647Z,4.74
2022-12-29T07:54:13.099Z,4.82
2022-12-29T07:59:19.526Z,4.93
2022-12-29T08:04:24.245Z,5.04
2022-12-29T08:09:28.759Z,5.15
2022-12-29T08:14:34.463Z,5.25
2022-12-29T08:19:39.672Z,5.38
2022-12-29T08:24:43.732Z,5.46
2022-12-29T08:29:49.841Z,5.58
2022-12-29T08:34:54.038Z,5.71
2022-12-29T08:39:58.854Z,5.80
2022-12-29T08:45:05.837Z,5.92
2022-12-29T08:50:10.299Z,5.98
2022-12-29T08:55:14.681Z,6.08
2022-12-29T09:00:23.772Z,6.11
2022-12-29T09:05:29.173Z,6.15
2022-12-29T09:10:33.826Z,6.15
2022-12-29T09:15:40.579Z,6.22
2022-12-29T09:20:45.452Z,6.23
2022-12-29T09:25:55.867Z,6.30
2022-12-29T09:31:02.402Z,6.38
2022-12-29T09:36:07.331Z,6.45
2022-12-29T09:41:20.662Z,6.46
2022-12-29T09:46:30.593Z,6.44
2022-12-29T09:51:38.522Z,6.49
2022-12-29T09:56:43.091Z,6.52
2022-12-29T10:01:54.205Z,6.54
2022-12-29T10:12:48.850Z,6.79
2022-12-29T10:18:03.102Z,6.91
2022-12-29T10:23:27.005Z,6.98
2022-12-29T10:28:41.057Z,7.18
2022-12-29T10:33:47.064Z,7.37
2022-12-29T10:39:04.352Z,7.53
2022-12-29T10:44:15.760Z,7.61
2022-12-29T10:49:22.730Z,7.65
2022-12-29T10:54:34.676Z,7.51
2022-12-29T10:59:39.624Z,7.45
2022-12-29T11:04:57.400Z,7.47
2022-12-29T11:10:21.652Z,7.59
2022-12-29T11:15:26.300Z,7.73
2022-12-29T11:20:38.643Z,7.73
2022-12-29T11:25:43.577Z,7.84
2022-12-29T11:31:00.958Z,7.73
2022-12-29T11:36:10.331Z,7.68
2022-12-29T11:41:22.074Z,7.56
2022-12-29T11:46:30.423Z,7.61
2022-12-29T11:51:45.238Z,7.65
2022-12-29T11:56:50.778Z,7.67
2022-12-29T12:01:56.034Z,7.85
2022-12-29T12:07:14.615Z,7.88
2022-12-29T12:12:30.162Z,7.86
2022-12-29T12:17:46.701Z,7.95
2022-12-29T12:23:04.156Z,7.83
2022-12-29T12:28:19.782Z,7.77
2022-12-29T12:33:31.027Z,7.74
2022-12-29T12:38:47.576Z,7.74
2022-12-29T12:43:57.930Z,7.64
2022-12-29T12:49:37.189Z,7.66
2022-12-29T12:55:03.083Z,7.60
2022-12-29T13:00:13.322Z,7.40
2022-12-29T13:05:37.683Z,7.39
2022-12-29T13:10:53.562Z,7.41
2022-12-29T13:16:13.813Z,7.36
2022-12-29T13:21:39.292Z,7.18
2022-12-29T13:26:50.530Z,7.14
2022-12-29T13:32:24.159Z,7.10
2022-12-29T13:37:33.591Z,6.99
2022-12-29T13:42:39.559Z,7.00
2022-12-29T13:47:49.936Z,6.94
2022-12-29T13:53:08.877Z,6.91
2022-12-29T13:58:27.771Z,6.89
2022-12-29T14:03:51.696Z,6.89
2022-12-29T14:08:59.314Z,6.87
2022-12-29T14:14:16.301Z,6.80
2022-12-29T14:19:26.531Z,6.81
2022-12-29T14:24:46.657Z,6.77
2022-12-29T14:29:53.605Z,6.73
2022-12-29T14:35:00.104Z,6.71
2022-12-29T14:40:08.365Z,6.67
2022-12-29T14:45:30.890Z,6.72
2022-12-29T14:50:44.385Z,6.84
2022-12-29T14:55:56.260Z,6.96
2022-12-29T15:01:02.721Z,7.04
2022-12-29T15:06:13.228Z,7.05
2022-12-29T15:11:24.189Z,7.09
2022-12-29T15:16:37.223Z,7.12
2022-12-29T15:21:44.791Z,7.14
2022-12-29T15:26:54.876Z,7.12
2022-12-29T15:32:03.369Z,7.13
2022-12-29T15:37:09.454Z,7.17
2022-12-29T15:42:54.400Z,7.19
2022-12-29T15:48:01.662Z,7.15
2022-12-29T15:53:14.029Z,7.14
2022-12-29T15:58:24.848Z,7.12
2022-12-29T16:03:35.120Z,7.14
2022-12-29T16:08:41.951Z,7.17
2022-12-29T16:13:46.637Z,7.30
2022-12-29T16:18:58.090Z,7.35
2022-12-29T16:24:07.496Z,7.47
2022-12-29T16:29:15.743Z,7.59
2022-12-29T16:34:28.004Z,7.63
2022-12-29T16:39:37.244Z,7.66
2022-12-29T16:44:41.467Z,7.69
2022-12-29T16:49:55.284Z,7.66
2022-12-29T16:55:03.171Z,7.60
2022-12-29T17:00:19.921Z,7.64
2022-12-29T17:05:26.891Z,7.68
2022-12-29T17:10:51.578Z,7.72
2022-12-29T17:15:55.890Z,7.73
2022-12-29T17:21:01.902Z,7.75
2022-12-29T17:26:14.985Z,7.65
2022-12-29T17:31:19.592Z,7.56
2022-12-29T17:36:26.390Z,7.44
2022-12-29T17:41:31.342Z,7.33
2022-12-29T17:46:36.545Z,7.26
2022-12-29T17:51:43.768Z,7.20
2022-12-29T17:56:48.169Z,7.13
2022-12-29T18:01:52.724Z,7.10
2022-12-29T18:06:58.347Z,7.04
2022-12-29T18:12:02.826Z,6.91
2022-12-29T18:17:13.904Z,6.93
2022-12-29T18:22:19.529Z,6.91
2022-12-29T18:27:23.721Z,6.85
2022-12-29T18:32:28.349Z,6.78
2022-12-29T18:37:34.223Z,6.74
2022-12-29T18:42:38.765Z,6.77
2022-12-29T18:47:43.223Z,6.72
2022-12-29T18:52:48.955Z,6.69
2022-12-29T18:57:53.661Z,6.67
2022-12-29T19:02:57.901Z,6.65
2022-12-29T19:08:03.721Z,6.62
2022-12-29T19:13:08.536Z,6.57
2022-12-29T19:23:45.418Z,6.54
2022-12-29T19:28:49.939Z,6.46
2022-12-29T19:33:54.578Z,6.43
2022-12-29T19:39:00.518Z,6.39
2022-12-29T19:44:05.379Z,6.36
2022-12-29T19:49:09.581Z,6.34
2022-12-29T19:54:15.395Z,6.36
2022-12-29T19:59:19.868Z,6.33
2022-12-29T20:04:24.449Z,6.32
2022-12-29T20:09:30.237Z,6.31
2022-12-29T20:14:34.751Z,6.24
2022-12-29T20:19:40.696Z,6.14
2022-12-29T20:24:50.123Z,6.08
2022-12-29T20:29:55.092Z,5.99
2022-12-29T20:34:59.542Z,5.96
2022-12-29T20:40:06.354Z,5.98
2022-12-29T20:45:11.668Z,5.99
2022-12-29T20:50:16.347Z,6.01
2022-12-29T20:55:22.484Z,5.96
2022-12-29T21:00:30.784Z,5.86
2022-12-29T21:05:39.021Z,5.77
2022-12-29T21:10:48.279Z,5.72
2022-12-29T21:15:58.141Z,5.69
2022-12-29T21:21:05.411Z,5.57
2022-12-29T21:26:12.514Z,5.53
2022-12-29T21:31:27.056Z,5.39
2022-12-29T21:36:32.930Z,5.39
2022-12-29T21:41:38.759Z,5.32
2022-12-29T21:46:44.203Z,5.29
2022-12-29T21:51:51.012Z,5.22
2022-12-29T21:56:56.844Z,5.20
2022-12-29T22:02:18.637Z,5.11
2022-12-29T22:07:40.345Z,5.11
2022-12-29T22:13:01.290Z,5.10
2022-12-29T22:18:06.462Z,5.07
2022-12-29T22:23:10.687Z,5.05
2022-12-29T22:28:16.884Z,5.06
2022-12-29T22:33:21.692Z,5.02
2022-12-29T22:38:25.964Z,5.03
2022-12-29T22:43:32.098Z,4.99
2022-12-29T22:48:40.288Z,4.92
2022-12-29T22:53:50.393Z,4.97
2022-12-29T22:58:56.073Z,4.90
2022-12-29T23:04:25.942Z,4.91
2022-12-29T23:09:24.936Z,4.87
2022-12-29T23:14:30.542Z,4.83
2022-12-29T23:19:34.853Z,4.81
2022-12-29T23:24:39.320Z,4.79
2022-12-29T23:29:45.108Z,4.72
2022-12-29T23:34:49.833Z,4.71
2022-12-29T23:39:54.028Z,4.70
2022-12-29T23:44:59.948Z,4.76
2022-12-29T23:50:14.701Z,4.82
2022-12-29T23:55:19.900Z,4.81
